Time;durP1;ratioP1;P1;durP2;ratioP2;P2;SDS_P1;SDS_P2;PMS_P1;PMS_P2;Temp;Humidity;BMP_temperature;BMP_pressure;BME280_temperature;BME280_humidity;BME280_pressure;Samples;Min_cycle;Max_cycle;Signal;HPM_P1;HPM_P2
2023/04/04 00:00:42;;;;;;;0.20;0.20;;;;;;;0.54;79.39;99768.56;4961775;28;20237;-74
2023/04/04 00:03:10;;;;;;;0.30;0.30;;;;;;;0.33;79.67;99754.75;4956545;28;20232;-75
2023/04/04 00:05:37;;;;;;;0.30;0.30;;;;;;;0.47;80.32;99778.69;4964946;28;20245;-75
2023/04/04 00:08:05;;;;;;;0.30;0.30;;;;;;;0.27;79.96;99764.91;4960574;28;20300;-77
2023/04/04 00:10:32;;;;;;;0.40;0.40;;;;;;;0.26;80.34;99783.94;4967197;28;20264;-75
2023/04/04 00:13:00;;;;;;;0.30;0.30;;;;;;;0.23;80.65;99778.63;4982650;23;20266;-76
2023/04/04 00:15:27;;;;;;;0.30;0.30;;;;;;;0.14;80.60;99797.34;4990467;28;20266;-76
2023/04/04 00:17:55;;;;;;;0.30;0.30;;;0.20;99.90;;;0.00;80.83;99803.69;4973620;28;20237;-76
2023/04/04 00:20:23;;;;;;;0.38;0.38;;;-0.40;99.90;;;-0.04;81.14;99807.84;4967339;28;20239;-76
2023/04/04 00:22:50;;;;;;;0.40;0.40;;;;;;;0.02;81.26;99816.75;4968652;28;20233;-76
2023/04/04 00:25:18;;;;;;;0.30;0.30;;;;;;;-0.04;81.49;99827.75;4969594;28;20229;-76
2023/04/04 00:27:47;;;;;;;0.30;0.30;;;0.20;99.90;;;0.12;81.33;99825.00;4959780;28;20311;-75
2023/04/04 00:30:14;;;;;;;0.30;0.30;;;;;;;0.12;81.13;99825.00;4966765;28;20264;-75
2023/04/04 00:32:42;;;;;;;0.40;0.40;;;;;;;0.08;81.02;99819.59;4975649;28;20311;-75
2023/04/04 00:35:09;;;;;;;0.30;0.30;;;;;;;0.13;80.80;99826.75;4959353;28;20289;-75
2023/04/04 00:37:36;;;;;;;0.30;0.30;;;0.20;99.90;;;-0.09;81.41;99818.88;4969385;28;20319;-76
2023/04/04 00:40:04;;;;;;;0.20;0.20;;;0.00;99.90;;;-0.09;81.58;99830.16;4958960;28;20325;-75
2023/04/04 00:42:33;;;;;;;0.30;0.30;;;0.00;99.90;;;-0.14;81.74;99839.47;4962417;28;20751;-74
2023/04/04 00:45:01;;;;;;;0.65;0.65;;;;;;;-0.40;82.23;99834.91;4979610;28;20321;-74
2023/04/04 00:47:30;;;;;;;0.30;0.30;;;-0.40;99.90;;;-0.45;82.85;99860.69;4947982;28;20264;-74
2023/04/04 00:49:57;;;;;;;0.40;0.40;;;;;;;-0.45;83.11;99878.84;4966839;28;20229;-74
2023/04/04 00:52:25;;;;;;;0.30;0.30;;;;;;;-0.33;83.17;99889.78;4964937;28;20313;-74
2023/04/04 00:54:55;;;;;;;0.40;0.40;;;-0.20;99.90;;;-0.42;83.08;99889.38;4969049;28;20236;-74
2023/04/04 00:57:23;;;;;;;0.30;0.30;;;-0.40;99.90;;;-0.41;83.46;99891.16;4956280;28;20296;-74
2023/04/04 00:59:50;;;;;;;0.30;0.30;;;;;;;-0.21;83.08;99899.81;4979986;28;20292;-74
2023/04/04 01:02:18;;;;;;;0.40;0.40;;;;;;;-0.27;82.44;99894.34;4965591;28;20634;-74
2023/04/04 01:04:46;;;;;;;0.30;0.30;;;;;;;-0.29;82.97;99897.69;4969764;28;20308;-74
2023/04/04 01:07:13;;;;;;;0.30;0.30;;;;;;;-0.26;82.80;99903.03;4979548;28;20257;-74
2023/04/04 01:09:40;;;;;;;0.30;0.30;;;-0.40;99.90;;;-0.29;82.93;99906.38;4960593;28;20332;-74
2023/04/04 01:12:08;;;;;;;0.30;0.30;;;;;;;-0.29;83.07;99903.78;4961381;28;20229;-75
2023/04/04 01:14:35;;;;;;;0.30;0.30;;;;;;;-0.37;83.04;99911.25;5063158;23;20304;-78
2023/04/04 01:17:03;;;;;;;0.40;0.40;;;-0.40;99.90;;;-0.41;83.68;99919.72;4965945;28;20368;-76
2023/04/04 01:19:36;;;;;;;0.35;0.35;;;-0.20;99.90;;;-0.52;83.81;99917.47;4970653;28;20249;-76
2023/04/04 01:22:05;;;;;;;0.30;0.30;;;-0.30;99.90;;;-0.50;83.85;99931.41;4970061;28;20252;-76
2023/04/04 01:24:34;;;;;;;0.40;0.40;;;-0.10;99.90;;;-0.47;84.08;99941.94;4964610;28;20319;-76
2023/04/04 01:27:02;;;;;;;0.55;0.55;;;;;;;-0.55;83.97;99936.41;4971990;28;20229;-76
2023/04/04 01:29:29;;;;;;;0.30;0.30;;;-0.60;99.90;;;-0.53;84.04;99941.66;4971500;28;20241;-74
2023/04/04 01:32:07;;;;;;;0.40;0.40;;;-0.40;99.90;;;-0.54;84.36;99947.69;4979924;28;20257;-74
2023/04/04 01:35:20;;;;;;;0.30;0.30;;;-0.50;99.90;;;-0.46;84.35;99956.72;4972060;28;20275;-74
2023/04/04 01:38:05;;;;;;;0.32;0.32;;;-0.40;99.90;;;-0.50;84.22;99955.69;4965862;28;20241;-74
2023/04/04 01:40:34;;;;;;;0.30;0.30;;;-0.40;99.90;;;-0.55;84.58;99964.09;4969436;28;20237;-75
2023/04/04 01:43:02;;;;;;;0.30;0.30;;;;;;;-0.48;84.59;99977.41;4954373;28;20257;-74
2023/04/04 01:45:29;;;;;;;0.40;0.40;;;;;;;-0.59;84.42;99978.63;4969785;28;20237;-74
2023/04/04 01:47:57;;;;;;;0.30;0.30;;;;;;;-0.55;84.78;99972.75;4971518;28;20295;-74
2023/04/04 01:50:25;;;;;;;0.40;0.40;;;;;;;-0.59;84.66;99981.22;4970992;28;20265;-74
2023/04/04 01:52:53;;;;;;;0.40;0.40;;;;;;;-0.67;85.10;99980.88;4971767;28;20324;-74
2023/04/04 01:55:20;;;;;;;0.30;0.30;;;-0.70;99.90;;;-0.64;85.24;99998.31;4970205;28;20236;-74
2023/04/04 01:57:48;;;;;;;0.30;0.30;;;;;;;-0.73;85.80;100000.47;4971812;28;20260;-75
2023/04/04 02:00:16;;;;;;;0.40;0.40;;;;;;;-1.02;85.76;99999.09;4971844;28;20237;-74
2023/04/04 02:02:43;;;;;;;0.38;0.38;;;;;;;-0.99;86.11;100012.22;4971609;28;20276;-74
2023/04/04 02:05:11;;;;;;;0.30;0.30;;;;;;;-0.95;86.53;100024.53;4971486;28;20279;-74
2023/04/04 02:07:38;;;;;;;0.30;0.30;;;;;;;-1.05;86.70;100022.31;4972175;28;20324;-74
2023/04/04 02:10:06;;;;;;;0.40;0.40;;;-0.60;99.90;;;-0.90;86.66;100029.94;4969484;28;20697;-74
2023/04/04 02:15:27;;;;;;;0.40;0.40;;;;;;;-0.99;86.35;100036.47;4908245;28;20263;-76
2023/04/04 02:17:54;;;;;;;0.30;0.30;;;;;;;-0.78;86.87;100061.69;4933772;28;20602;-76
2023/04/04 02:20:22;;;;;;;0.40;0.40;;;;;;;-0.90;86.33;100063.69;4925464;28;20246;-76
2023/04/04 02:22:53;;;;;;;0.40;0.40;;;-0.70;99.90;;;-0.81;86.83;100070.22;4934370;28;20330;-76
2023/04/04 02:25:24;;;;;;;0.40;0.40;;;-0.90;99.90;;;-1.12;86.93;100069.53;4933491;28;20763;-76
2023/04/04 02:27:51;;;;;;;0.30;0.30;;;-1.00;99.90;;;-1.16;87.05;100062.41;4937620;28;20289;-74
2023/04/04 02:30:18;;;;;;;0.30;0.30;;;;;;;-1.12;87.55;100083.41;4929723;28;20234;-75
2023/04/04 02:32:46;;;;;;;0.40;0.40;;;-0.90;99.90;;;-1.04;87.30;100087.28;4947105;28;20257;-75
2023/04/04 02:35:14;;;;;;;0.40;0.40;;;;;;;-1.02;87.32;100087.34;4933508;28;20231;-75
2023/04/04 02:37:45;;;;;;;0.40;0.40;;;-1.00;99.90;;;-1.17;87.70;100087.47;4937457;28;20264;-75
2023/04/04 02:40:12;;;;;;;0.40;0.40;;;;;;;-1.11;87.37;100095.56;4926943;28;20230;-75
2023/04/04 02:42:43;;;;;;;0.40;0.40;;;-0.90;99.90;;;-1.06;87.69;100099.28;4928668;28;20318;-74
2023/04/04 02:45:13;;;;;;;0.40;0.40;;;-1.10;99.90;;;-1.24;87.72;100100.06;4928441;28;20234;-74
2023/04/04 02:47:41;;;;;;;0.30;0.30;;;-1.00;99.90;;;-1.16;87.68;100103.94;4929176;28;20233;-75
2023/04/04 02:50:10;;;;;;;0.40;0.40;;;-1.00;99.90;;;-1.17;88.21;100108.22;4930867;28;20242;-75
2023/04/04 02:52:37;;;;;;;0.40;0.40;;;;;;;-1.09;87.95;100117.28;4932452;28;20270;-75
2023/04/04 02:55:06;;;;;;;0.50;0.50;;;-1.10;99.90;;;-1.20;87.74;100118.47;4933159;28;20309;-75
2023/04/04 02:57:34;;;;;;;0.43;0.43;;;;;;;-1.19;87.95;100124.53;4932417;28;20239;-75
2023/04/04 03:00:04;;;;;;;0.40;0.40;;;-1.00;99.90;;;-1.19;88.03;100132.31;4929182;28;20670;-75
2023/04/04 03:02:31;;;;;;;0.40;0.40;;;;;;;-1.15;88.13;100136.84;4931736;29;20259;-75
2023/04/04 03:04:59;;;;;;;0.30;0.30;;;-0.90;99.90;;;-1.20;88.25;100141.81;4934616;29;20266;-75
2023/04/04 03:07:26;;;;;;;0.30;0.30;;;;;;;-1.19;87.87;100146.19;4926634;28;20291;-75
2023/04/04 03:09:53;;;;;;;0.40;0.40;;;;;;;-1.20;87.82;100148.69;4938519;28;20252;-75
2023/04/04 03:12:21;;;;;;;0.32;0.32;;;;;;;-1.25;88.00;100153.66;4922465;29;20348;-74
2023/04/04 03:14:48;;;;;;;0.40;0.40;;;;;;;-1.30;87.98;100150.81;5002954;23;20312;-75
2023/04/04 03:17:17;;;;;;;0.30;0.30;;;;;;;-1.24;88.27;100159.72;4977814;28;20363;-76
2023/04/04 03:19:44;;;;;;;0.40;0.40;;;-1.40;99.90;;;-1.26;88.12;100167.44;4979093;28;20233;-76
2023/04/04 03:22:12;;;;;;;0.40;0.40;;;;;;;-1.34;87.93;100161.81;4982246;28;20240;-76
2023/04/04 03:24:39;;;;;;;0.40;0.40;;;;;;;-1.35;88.08;100166.94;4983656;28;20311;-76
2023/04/04 03:27:06;;;;;;;0.30;0.30;;;;;;;-1.37;87.99;100178.94;4982984;28;20303;-76
2023/04/04 03:29:34;;;;;;;0.40;0.40;;;;;;;-1.62;88.42;100174.16;4972442;28;20244;-74
2023/04/04 03:32:01;;;;;;;0.30;0.30;;;;;;;-1.57;88.58;100177.00;4984868;28;20280;-75
2023/04/04 03:34:30;;;;;;;0.40;0.40;;;;;;;-1.71;88.98;100189.22;4988342;28;20234;-75
2023/04/04 03:36:58;;;;;;;0.38;0.38;;;;;;;-1.64;89.45;100202.59;4986750;28;20232;-77
2023/04/04 03:39:31;;;;;;;0.40;0.40;;;-1.40;99.90;;;-1.75;89.70;100197.66;4979651;28;20331;-76
2023/04/04 03:41:59;;;;;;;0.30;0.30;;;;;;;-1.71;89.60;100205.66;4989465;28;20331;-75
2023/04/04 03:44:26;;;;;;;0.40;0.40;;;;;;;-1.79;89.74;100206.97;4987270;28;20244;-76
2023/04/04 03:46:53;;;;;;;0.40;0.40;;;;;;;-1.75;89.84;100215.78;4984958;28;20264;-77
2023/04/04 03:49:21;;;;;;;0.40;0.40;;;;;;;-1.83;89.65;100217.97;4990928;28;20299;-77
2023/04/04 03:51:48;;;;;;;0.35;0.35;;;;;;;-1.92;90.07;100221.75;4985435;28;20233;-74
2023/04/04 03:54:16;;;;;;;0.40;0.40;;;;;;;-1.89;90.16;100222.81;4980074;28;20335;-74
2023/04/04 03:56:43;;;;;;;0.50;0.50;;;-1.80;99.90;;;-1.88;90.39;100234.06;4978922;28;20267;-74
2023/04/04 03:59:11;;;;;;;0.43;0.43;;;;;;;-1.91;90.86;100250.34;4990663;28;20232;-75
2023/04/04 04:01:38;;;;;;;0.40;0.40;;;;;;;-1.92;90.89;100245.97;4982573;28;20237;-75
2023/04/04 04:04:06;;;;;;;0.40;0.40;;;;;;;-2.00;91.07;100249.84;4993847;28;20656;-75
2023/04/04 04:06:34;;;;;;;0.40;0.40;;;;;;;-1.89;91.12;100258.22;4989346;28;20231;-75
2023/04/04 04:09:02;;;;;;;0.40;0.40;;;;;;;-1.88;90.88;100270.34;4984343;28;20244;-75
2023/04/04 04:11:29;;;;;;;0.40;0.40;;;;;;;-1.90;90.88;100272.88;4985762;28;20263;-74
2023/04/04 04:13:57;;;;;;;0.40;0.40;;;;;;;-1.91;90.82;100270.19;4999542;23;20240;-78
2023/04/04 04:16:24;;;;;;;0.40;0.40;;;;;;;-1.86;90.78;100274.81;4984886;28;20292;-78
2023/04/04 04:18:51;;;;;;;0.40;0.40;;;;;;;-1.92;90.64;100277.06;4983702;28;20243;-77
2023/04/04 04:21:19;;;;;;;0.40;0.40;;;;;;;-1.80;90.36;100282.03;4987491;28;20236;-77
2023/04/04 04:23:46;;;;;;;0.30;0.30;;;-1.60;99.90;;;-1.75;89.71;100284.09;4986699;28;20319;-77
2023/04/04 04:26:14;;;;;;;0.40;0.40;;;;;;;-1.82;89.85;100281.97;4982480;28;20247;-77
2023/04/04 04:28:41;;;;;;;0.40;0.40;;;;;;;-1.78;89.64;100277.84;4980476;28;20237;-76
2023/04/04 04:31:09;;;;;;;0.50;0.50;;;-1.60;99.90;;;-1.85;89.71;100280.91;4987023;28;20236;-75
2023/04/04 04:33:36;;;;;;;0.60;0.60;;;;;;;-1.84;89.93;100288.75;4985170;28;20693;-76
2023/04/04 04:36:05;;;;;;;0.40;0.40;;;-1.70;99.90;;;-1.81;90.11;100303.59;4986578;28;20264;-75
2023/04/04 04:38:33;;;;;;;0.40;0.40;;;-1.70;99.90;;;-1.71;90.11;100314.56;4972859;28;20315;-75
2023/04/04 04:41:00;;;;;;;0.30;0.30;;;-1.70;99.90;;;-1.78;89.95;100314.13;4989207;28;20240;-75
2023/04/04 04:43:28;;;;;;;0.40;0.40;;;;;;;-1.87;89.57;100305.84;4989638;28;20315;-75
2023/04/04 04:45:55;;;;;;;0.32;0.32;;;;;;;-1.84;89.46;100306.91;4990571;28;20259;-75
2023/04/04 04:48:23;;;;;;;0.40;0.40;;;;;;;-1.95;89.73;100301.13;4991727;28;20712;-76
2023/04/04 04:50:50;;;;;;;0.40;0.40;;;;;;;-2.04;89.96;100305.78;4994043;28;20240;-75
2023/04/04 04:53:18;;;;;;;0.35;0.35;;;;;;;-2.03;90.24;100309.25;4991802;28;20238;-76
2023/04/04 04:55:45;;;;;;;0.40;0.40;;;;;;;-1.83;90.10;100333.72;4994664;28;20267;-76
2023/04/04 04:58:15;;;;;;;0.40;0.40;;;;;;;-1.91;89.51;100327.22;4982929;28;20236;-76
2023/04/04 05:00:43;;;;;;;0.40;0.40;;;;;;;-1.97;89.83;100325.16;4985914;28;20236;-75
2023/04/04 05:03:10;;;;;;;0.40;0.40;;;;;;;-1.99;89.85;100325.06;4993885;28;20690;-75
2023/04/04 05:05:38;;;;;;;0.40;0.40;;;;;;;-1.90;89.79;100335.06;4992655;28;20251;-76
2023/04/04 05:08:05;;;;;;;0.40;0.40;;;;;;;-1.88;89.43;100340.34;4992876;28;20237;-76
2023/04/04 05:10:33;;;;;;;0.40;0.40;;;;;;;-1.98;89.80;100341.50;4992068;28;20244;-75
2023/04/04 05:13:00;;;;;;;0.40;0.40;;;;;;;-2.00;89.90;100345.72;5016292;23;20216;-76
2023/04/04 05:15:28;;;;;;;0.50;0.50;;;;;;;-2.06;89.92;100341.06;4965261;28;20261;-75
2023/04/04 05:17:56;;;;;;;0.30;0.30;;;;;;;-2.04;90.09;100343.75;4973389;28;20248;-75
2023/04/04 05:20:23;;;;;;;0.40;0.40;;;;;;;-1.90;89.39;100350.63;4963567;28;20296;-75
2023/04/04 05:22:51;;;;;;;0.40;0.40;;;;;;;-1.84;88.91;100361.34;4971839;28;20331;-76
2023/04/04 05:25:18;;;;;;;0.40;0.40;;;-1.40;99.90;;;-1.79;88.96;100364.19;4967562;28;20264;-76
2023/04/04 05:27:48;;;;;;;0.40;0.40;;;-1.70;99.90;;;-1.79;88.46;100356.41;4968560;28;20257;-74
2023/04/04 05:30:15;;;;;;;0.40;0.40;;;-1.70;99.90;;;-1.80;88.56;100354.63;4954500;28;20265;-74
2023/04/04 05:32:46;;;;;;;0.40;0.40;;;-1.70;99.90;;;-1.79;88.52;100361.59;4953579;28;20248;-74
2023/04/04 05:35:13;;;;;;;0.40;0.40;;;;;;;-1.77;88.14;100363.47;4968980;28;20321;-76
2023/04/04 05:37:41;;;;;;;0.40;0.40;;;;;;;-1.72;88.02;100368.91;4953745;28;20237;-76
2023/04/04 05:40:09;;;;;;;0.40;0.40;;;;;;;-1.73;88.38;100368.00;4946217;28;20262;-76
2023/04/04 05:42:37;;;;;;;0.30;0.30;;;;;;;-1.76;88.42;100378.22;4973468;28;20295;-76
2023/04/04 05:45:05;;;;;;;0.45;0.45;;;;;;;-1.74;88.72;100386.06;4973169;28;20245;-77
2023/04/04 05:47:32;;;;;;;0.40;0.40;;;;;;;-1.70;88.71;100388.03;4964420;28;20296;-76
2023/04/04 05:50:00;;;;;;;0.40;0.40;;;;;;;-1.71;88.68;100397.50;4972558;28;20241;-76
2023/04/04 05:52:27;;;;;;;0.30;0.30;;;;;;;-1.57;88.22;100411.25;4973387;28;20264;-77
2023/04/04 05:54:55;;;;;;;0.50;0.50;;;;;;;-1.52;88.01;100429.66;4973260;28;20745;-76
2023/04/04 05:57:22;;;;;;;0.40;0.40;;;;;;;-1.43;88.08;100431.09;4972829;28;20237;-75
2023/04/04 05:59:51;;;;;;;0.40;0.40;;;;;;;-1.51;87.96;100427.16;4972283;28;20286;-75
2023/04/04 06:02:18;;;;;;;0.35;0.35;;;;;;;-1.38;88.06;100445.19;4973252;28;20241;-75
2023/04/04 06:04:46;;;;;;;0.30;0.30;;;;;;;-1.35;87.42;100436.69;4988421;28;20279;-75
2023/04/04 06:07:13;;;;;;;0.30;0.30;;;;;;;-1.31;87.50;100439.56;4968377;28;20240;-75
2023/04/04 06:09:41;;;;;;;0.40;0.40;;;;;;;-1.26;87.32;100444.13;4973431;28;20241;-75
2023/04/04 06:12:09;;;;;;;0.30;0.30;;;;;;;-1.17;87.20;100453.31;4973037;28;20328;-76
2023/04/04 06:14:36;;;;;;;0.30;0.30;;;;;;;-1.17;87.00;100455.91;4998482;23;20315;-74
2023/04/04 06:17:04;;;;;;;0.30;0.30;;;-0.90;99.90;;;-1.04;86.66;100460.09;4992512;28;20236;-74
2023/04/04 06:19:31;;;;;;;0.30;0.30;;;;;;;-0.92;86.14;100475.44;4990364;28;20232;-74
2023/04/04 06:21:59;;;;;;;0.40;0.40;;;;;;;-0.84;85.98;100476.75;4995444;28;20251;-73
2023/04/04 06:24:26;;;;;;;0.30;0.30;;;-0.60;99.90;;;-0.80;85.50;100468.34;4992470;28;20264;-75
2023/04/04 06:26:53;;;;;;;0.40;0.40;;;;;;;-0.72;85.20;100467.94;4991814;28;20239;-74
2023/04/04 06:29:20;;;;;;;0.30;0.30;;;;;;;-0.74;85.52;100476.44;4992017;28;20303;-74
2023/04/04 06:31:48;;;;;;;0.30;0.30;;;-0.20;99.90;;;-0.56;84.80;100481.75;4992284;28;20237;-73
2023/04/04 06:34:15;;;;;;;0.40;0.40;;;-0.20;99.90;;;-0.58;85.04;100480.78;4990841;28;20323;-74
2023/04/04 06:36:42;;;;;;;0.40;0.40;;;-0.50;99.90;;;-0.59;85.02;100479.88;4990435;28;20256;-74
2023/04/04 06:39:10;;;;;;;0.40;0.40;;;;;;;-0.43;84.58;100494.56;4992444;28;20233;-73
2023/04/04 06:41:37;;;;;;;0.40;0.40;;;;;;;-0.38;84.63;100504.41;4973150;28;20306;-73
2023/04/04 06:44:05;;;;;;;0.40;0.40;;;;;;;-0.14;84.04;100524.72;4992516;28;20290;-73
2023/04/04 06:46:33;;;;;;;0.30;0.30;;;;;;;-0.03;83.58;100518.38;4989853;28;20260;-73
2023/04/04 06:49:00;;;;;;;0.30;0.30;;;;;;;0.04;83.15;100511.81;4990826;28;20319;-73
2023/04/04 06:51:27;;;;;;;0.32;0.32;;;0.20;99.90;;;0.16;82.78;100509.84;4991966;28;20264;-73
2023/04/04 06:53:59;;;;;;;0.30;0.30;;;0.40;99.90;;;0.25;82.48;100505.13;4990990;28;20236;-73
2023/04/04 06:56:27;;;;;;;0.30;0.30;;;;;;;0.31;81.99;100506.31;4991240;28;20268;-74
2023/04/04 06:58:55;;;;;;;0.30;0.30;;;;;;;0.36;81.80;100496.16;4991539;28;20582;-74
2023/04/04 07:01:22;;;;;;;0.32;0.32;;;;;;;0.54;80.88;100485.78;4991881;28;20331;-73
2023/04/04 07:03:53;;;;;;;0.30;0.30;;;0.60;99.90;;;0.56;80.98;100478.94;4990854;28;20244;-74
2023/04/04 07:06:23;;;;;;;0.20;0.20;;;0.70;99.90;;;0.59;80.51;100466.97;4989774;28;20260;-73
2023/04/04 07:08:52;;;;;;;0.40;0.40;;;;;;;0.81;80.24;100487.13;4991344;28;20263;-74
2023/04/04 07:11:22;;;;;;;0.30;0.30;;;;;;;1.02;79.23;100471.63;4983568;28;20235;-75
2023/04/04 07:13:49;;;;;;;0.30;0.30;;;;;;;1.08;78.27;100451.09;4987202;28;20323;-74
2023/04/04 07:16:17;;;;;;;0.30;0.30;;;;;;;1.21;77.74;100434.31;4987203;28;20252;-73
2023/04/04 07:18:45;;;;;;;0.30;0.30;;;;;;;1.28;77.25;100406.00;4987545;28;20322;-73
2023/04/04 07:21:12;;;;;;;0.30;0.30;;;1.40;99.90;;;1.35;76.90;100386.38;4990729;28;20298;-76
2023/04/04 07:23:39;;;;;;;0.68;0.68;;;;;;;1.53;76.06;100381.97;4990860;28;20266;-76
2023/04/04 07:26:07;;;;;;;0.30;0.30;;;;;;;1.55;76.02;100363.81;4990057;28;20244;-74
2023/04/04 07:28:35;;;;;;;0.30;0.30;;;;;;;1.72;75.73;100369.75;4988380;28;20247;-74
2023/04/04 07:31:03;;;;;;;0.35;0.35;;;;;;;1.78;75.04;100333.50;4991253;28;20240;-75
2023/04/04 07:33:31;;;;;;;0.40;0.40;;;;;;;2.04;74.64;100342.41;4989951;28;20264;-74
2023/04/04 07:36:01;;;;;;;0.40;0.40;;;2.10;99.90;;;1.98;73.77;100303.03;4995806;28;20268;-76
2023/04/04 07:38:29;;;;;;;0.30;0.30;;;;;;;2.24;72.43;100265.84;4990301;28;20236;-76
2023/04/04 07:40:56;;;;;;;0.30;0.30;;;;;;;2.16;72.46;100242.06;4986582;28;20232;-74
2023/04/04 07:43:23;;;;;;;0.40;0.40;;;;;;;2.37;71.73;100225.47;4989055;28;20263;-74
2023/04/04 07:45:52;;;;;;;0.30;0.30;;;;;;;2.51;71.36;100214.72;4986769;28;20232;-75
2023/04/04 07:48:20;;;;;;;0.28;0.28;;;;;;;2.72;70.70;100192.88;4988160;28;20236;-74
2023/04/04 07:50:49;;;;;;;0.20;0.20;;;;;;;3.09;68.53;100169.84;4990596;28;20224;-75
2023/04/04 07:53:16;;;;;;;0.20;0.20;;;;;;;3.19;66.89;100071.75;4990631;28;20232;-76
2023/04/04 07:55:44;;;;;;;0.20;0.20;;;;;;;3.11;65.13;99958.28;4987281;28;20263;-75
2023/04/04 07:58:11;;;;;;;0.40;0.40;;;;;;;3.38;64.46;99932.09;4990922;28;20240;-75
2023/04/04 08:00:38;;;;;;;0.30;0.30;;;;;;;3.45;64.37;99918.38;4988532;28;20248;-75
2023/04/04 08:03:06;;;;;;;0.30;0.30;;;;;;;3.41;63.29;99862.50;4990442;28;20271;-75
2023/04/04 08:05:34;;;;;;;0.30;0.30;;;;;;;3.65;62.56;99840.50;4988601;28;20252;-75
2023/04/04 08:08:01;;;;;;;0.30;0.30;;;;;;;3.92;61.23;99788.06;4989298;28;20320;-74
2023/04/04 08:10:29;;;;;;;0.30;0.30;;;;;;;3.70;61.03;99731.69;4989753;28;20259;-75
2023/04/04 08:12:56;;;;;;;0.25;0.25;;;;;;;3.72;60.23;99689.03;4990786;28;20271;-74
2023/04/04 08:15:24;;;;;;;0.20;0.20;;;;;;;3.79;59.62;99654.34;4989074;28;20719;-75
2023/04/04 08:17:52;;;;;;;0.30;0.30;;;;;;;3.89;59.45;99660.66;4987901;28;20252;-75
2023/04/04 08:20:19;;;;;;;0.20;0.20;;;4.30;99.90;;;4.02;59.58;99678.44;4989106;28;20263;-75
2023/04/04 08:22:47;;;;;;;0.30;0.30;;;;;;;4.12;59.06;99658.59;4989223;28;20232;-75
2023/04/04 08:25:14;;;;;;;0.20;0.20;;;;;;;4.27;58.79;99653.72;4989707;28;20228;-75
2023/04/04 08:27:43;;;;;;;0.20;0.20;;;;;;;4.34;58.39;99623.31;4989640;28;20322;-74
2023/04/04 08:30:13;;;;;;;0.30;0.30;;;4.70;99.90;;;4.62;58.14;99630.00;4989850;28;20228;-75
2023/04/04 08:32:41;;;;;;;0.22;0.22;;;;;;;4.26;58.16;99588.25;4989631;28;20240;-74
2023/04/04 08:35:08;;;;;;;0.20;0.20;;;4.20;99.90;;;4.24;57.83;99546.34;4989104;28;20325;-75
2023/04/04 08:37:36;;;;;;;0.20;0.20;;;;;;;4.66;58.14;99611.75;4989443;28;20232;-74
2023/04/04 08:40:04;;;;;;;0.20;0.20;;;4.70;99.90;;;4.72;57.60;99588.31;4988429;28;20330;-74
2023/04/04 08:42:36;;;;;;;0.30;0.30;;;5.00;99.90;;;5.01;57.14;99580.09;4989470;28;20314;-74
2023/04/04 08:45:04;;;;;;;0.20;0.20;;;5.20;99.90;;;4.75;56.70;99522.88;4988905;28;20256;-75
2023/04/04 08:47:32;;;;;;;0.30;0.30;;;4.90;99.90;;;4.81;55.91;99482.81;4989525;28;20651;-75
2023/04/04 08:50:03;;;;;;;0.32;0.32;;;;;;;5.07;55.63;99478.88;4988669;28;20240;-75
2023/04/04 08:52:33;;;;;;;0.20;0.20;;;5.20;99.90;;;4.93;55.38;99427.13;4988422;28;20287;-75
2023/04/04 08:55:04;;;;;;;0.20;0.20;;;5.40;99.90;;;5.34;55.37;99473.19;4988147;28;20232;-75
2023/04/04 08:57:32;;;;;;;0.20;0.20;;;;;;;4.96;54.96;99390.50;4984440;28;20232;-74
2023/04/04 09:00:04;;;;;;;0.20;0.20;;;;;;;5.19;55.14;99399.56;4988629;28;20232;-75
2023/04/04 09:02:56;;;;;;;0.20;0.20;;;5.10;99.90;;;5.10;54.88;99368.88;4983709;28;20570;-75
2023/04/04 09:05:25;;;;;;;0.20;0.20;;;;;;;5.25;54.63;99373.47;4989042;28;20247;-75
2023/04/04 09:07:53;;;;;;;0.20;0.20;;;5.30;99.90;;;5.11;54.25;99312.97;4985914;28;20247;-75
2023/04/04 09:10:22;;;;;;;0.20;0.20;;;;;;;5.31;54.44;99363.06;4988562;28;20260;-75
2023/04/04 09:12:51;;;;;;;0.20;0.20;;;5.50;99.90;;;5.30;54.21;99319.38;4986228;28;20275;-74
2023/04/04 09:15:23;;;;;;;0.20;0.20;;;;;;;5.70;54.37;99378.41;4972424;28;20247;-75
2023/04/04 09:17:51;;;;;;;0.20;0.20;;;;;;;5.34;53.54;99271.34;4989145;28;20290;-74
2023/04/04 09:20:40;;;;;;;0.20;0.20;;;5.70;99.90;;;5.76;54.02;99351.34;4989827;28;20244;-74
2023/04/04 09:23:17;;;;;;;0.20;0.20;;;6.10;99.90;;;6.30;53.57;99390.44;4989479;28;20287;-74
2023/04/04 09:25:49;;;;;;;0.20;0.20;;;6.20;99.90;;;6.14;53.36;99333.41;4968896;28;20235;-76
2023/04/04 09:28:20;;;;;;;0.10;0.10;;;6.30;99.90;;;6.18;52.61;99295.81;4979674;28;20322;-75
2023/04/04 09:30:49;;;;;;;0.20;0.20;;;6.30;99.90;;;6.04;52.65;99247.56;4990170;28;20228;-75
2023/04/04 09:33:19;;;;;;;0.30;0.30;;;6.20;99.90;;;6.16;52.88;99265.16;4989662;28;20610;-75
2023/04/04 09:35:53;;;;;;;0.20;0.20;;;6.30;99.90;;;6.10;52.73;99242.38;4974028;28;20256;-75
2023/04/04 09:38:23;;;;;;;0.20;0.20;;;6.20;99.90;;;6.02;52.95;99194.19;4984525;28;20243;-75
2023/04/04 09:40:51;;;;;;;0.20;0.20;;;;;;;6.76;52.86;99298.00;4988513;28;20242;-74
2023/04/04 09:43:21;;;;;;;0.20;0.20;;;;;;;6.79;52.22;99258.63;4988507;28;20233;-76
2023/04/04 09:45:49;;;;;;;0.35;0.35;;;;;;;6.69;52.11;99220.91;4991636;28;20236;-76
2023/04/04 09:48:31;;;;;;;0.10;0.10;;;7.00;99.90;;;6.87;52.06;99226.25;4989708;28;20243;-75
2023/04/04 09:50:59;;;;;;;0.10;0.10;;;;;;;6.88;51.21;99185.09;4991188;28;20753;-75
2023/04/04 09:53:27;;;;;;;0.20;0.20;;;7.00;99.60;;;6.88;50.60;99140.41;4992167;28;20236;-75
2023/04/04 09:55:56;;;;;;;0.20;0.20;;;7.30;99.90;;;7.15;51.79;99215.84;4984830;28;20236;-75
2023/04/04 09:58:26;;;;;;;0.10;0.10;;;7.50;99.50;;;7.46;50.81;99201.88;4991124;28;20248;-75
2023/04/04 10:00:58;;;;;;;0.10;0.10;;;7.30;99.30;;;7.03;50.48;99087.88;4992638;28;20326;-75
2023/04/04 10:03:26;;;;;;;0.20;0.20;;;;;;;7.48;51.01;99172.97;4990402;28;20232;-75
2023/04/04 10:06:05;;;;;;;0.20;0.20;;;7.70;98.00;;;7.59;49.64;99123.88;4991849;28;20328;-75
2023/04/04 10:08:34;;;;;;;0.10;0.10;;;7.60;99.60;;;7.43;50.24;99078.28;4989396;28;20324;-75
2023/04/04 10:11:05;;;;;;;0.30;0.30;;;7.70;98.50;;;7.56;49.48;99048.44;4987646;28;20271;-75
2023/04/04 10:13:40;;;;;;;0.68;0.68;;;7.80;98.70;;;7.80;49.47;99070.34;5007028;23;20291;-79
2023/04/04 10:16:09;;;;;;;0.20;0.20;;;;;;;7.77;50.17;99094.03;4989257;28;20295;-78
2023/04/04 10:18:37;;;;;;;0.10;0.10;;;;;;;7.58;49.88;99004.59;4979924;28;20418;-79
2023/04/04 10:21:07;;;;;;;0.10;0.10;;;7.90;98.60;;;7.74;49.89;99025.63;4981947;28;20248;-79
2023/04/04 10:23:38;;;;;;;0.10;0.10;;;;;;;7.76;49.17;99000.19;4979529;28;20244;-79
2023/04/04 10:26:06;;;;;;;0.85;0.85;;;;;;;8.30;49.89;99088.69;4980785;28;20244;-80
2023/04/04 10:28:33;;;;;;;0.20;0.20;;;;;;;7.61;47.86;98822.22;4990928;28;20240;-76
2023/04/04 10:31:04;;;;;;;0.10;0.10;;;;;;;7.75;48.43;98866.88;4989120;28;20271;-77
2023/04/04 10:34:03;;;;;;;0.20;0.20;;;8.20;98.90;;;8.37;49.35;99015.81;4975749;28;20308;-75
2023/04/04 10:36:43;;;;;;;0.20;0.20;;;8.40;96.10;;;7.80;47.96;98808.09;4975265;28;20249;-75
2023/04/04 10:39:25;;;;;;;0.10;0.10;;;8.40;98.70;;;8.09;48.88;98915.84;4974779;28;20232;-75
2023/04/04 10:41:55;;;;;;;0.15;0.15;;;8.60;99.90;;;8.37;49.80;99007.91;4979329;28;20240;-78
2023/04/04 10:44:32;;;;;;;0.88;0.85;;;8.50;97.50;;;8.37;48.56;98924.50;4979775;28;20252;-76
2023/04/04 10:47:24;;;;;;;0.20;0.20;;;8.90;96.60;;;8.57;47.35;98885.72;4978824;28;20232;-75
2023/04/04 10:49:52;;;;;;;0.50;0.50;;;;;;;8.70;48.15;98904.06;4984572;28;20244;-74
2023/04/04 10:52:22;;;;;;;0.10;0.10;;;8.70;97.50;;;8.63;48.07;98863.72;4989844;28;20334;-74
2023/04/04 10:54:56;;;;;;;0.10;0.10;;;9.20;96.10;;;8.92;47.37;98879.28;4990049;28;20232;-77
2023/04/04 10:57:24;;;;;;;0.00;0.00;;;;;;;8.86;47.67;98859.13;4980102;28;20237;-74
2023/04/04 10:59:57;;;;;;;0.10;0.10;;;9.20;97.60;;;9.21;47.66;98900.13;4987121;28;20670;-73
2023/04/04 11:02:51;;;;;;;0.10;0.10;;;9.20;94.90;;;9.02;47.79;98816.78;4970360;28;20241;-74
2023/04/04 11:05:19;;;;;;;0.10;0.10;;;;;;;8.99;47.70;98826.47;4970165;28;20308;-73
2023/04/04 11:07:48;;;;;;;0.10;0.10;;;;;;;9.50;48.69;98911.25;4986842;28;20302;-73
2023/04/04 11:10:43;;;;;;;0.10;0.10;;;9.60;96.40;;;9.38;47.01;98795.28;4978692;28;20667;-73
2023/04/04 11:15:59;;;;;;;0.10;0.10;;;9.70;95.40;;;9.19;45.77;98654.88;4926497;28;20237;-75
2023/04/04 11:18:38;;;;;;;0.00;0.00;;;9.90;98.20;;;10.03;47.57;98874.50;4918845;28;20246;-75